sensor_id;sensor_type;location;lat;lon;timestamp;P1;durP1;ratioP1;P2;durP2;ratioP2
17380;SDS011;8808;52.478;13.378;2023-04-25T00:01:44;5.53;;;2.13;;
17380;SDS011;8808;52.478;13.378;2023-04-25T00:04:11;5.13;;;1.97;;
17380;SDS011;8808;52.478;13.378;2023-04-25T00:06:38;5.30;;;2.30;;
17380;SDS011;8808;52.478;13.378;2023-04-25T00:09:06;5.37;;;2.40;;
17380;SDS011;8808;52.478;13.378;2023-04-25T00:11:35;4.50;;;1.87;;
17380;SDS011;8808;52.478;13.378;2023-04-25T00:14:02;3.33;;;1.80;;
17380;SDS011;8808;52.478;13.378;2023-04-25T00:16:30;6.13;;;2.20;;
17380;SDS011;8808;52.478;13.378;2023-04-25T00:18:58;5.17;;;2.00;;
17380;SDS011;8808;52.478;13.378;2023-04-25T00:21:26;5.13;;;2.10;;
17380;SDS011;8808;52.478;13.378;2023-04-25T00:23:53;3.97;;;2.03;;
17380;SDS011;8808;52.478;13.378;2023-04-25T00:26:22;3.43;;;1.83;;
17380;SDS011;8808;52.478;13.378;2023-04-25T00:28:50;5.13;;;2.10;;
17380;SDS011;8808;52.478;13.378;2023-04-25T00:31:16;5.27;;;2.30;;
17380;SDS011;8808;52.478;13.378;2023-04-25T00:33:44;5.23;;;2.17;;
17380;SDS011;8808;52.478;13.378;2023-04-25T00:36:10;3.90;;;2.03;;
17380;SDS011;8808;52.478;13.378;2023-04-25T00:38:37;6.67;;;2.23;;
17380;SDS011;8808;52.478;13.378;2023-04-25T00:41:05;8.03;;;2.10;;
17380;SDS011;8808;52.478;13.378;2023-04-25T00:43:35;5.37;;;2.30;;
17380;SDS011;8808;52.478;13.378;2023-04-25T00:46:02;4.20;;;2.33;;
17380;SDS011;8808;52.478;13.378;2023-04-25T00:48:30;4.43;;;2.17;;
17380;SDS011;8808;52.478;13.378;2023-04-25T00:50:58;6.27;;;2.37;;
17380;SDS011;8808;52.478;13.378;2023-04-25T00:53:26;4.83;;;2.00;;
17380;SDS011;8808;52.478;13.378;2023-04-25T00:55:54;3.60;;;2.10;;
17380;SDS011;8808;52.478;13.378;2023-04-25T00:58:21;5.23;;;2.20;;
17380;SDS011;8808;52.478;13.378;2023-04-25T01:03:32;6.03;;;2.33;;
17380;SDS011;8808;52.478;13.378;2023-04-25T01:06:01;6.40;;;2.43;;
17380;SDS011;8808;52.478;13.378;2023-04-25T01:08:28;8.47;;;2.50;;
17380;SDS011;8808;52.478;13.378;2023-04-25T01:10:55;7.50;;;2.63;;
17380;SDS011;8808;52.478;13.378;2023-04-25T01:13:22;9.70;;;2.57;;
17380;SDS011;8808;52.478;13.378;2023-04-25T01:15:49;5.77;;;2.57;;
17380;SDS011;8808;52.478;13.378;2023-04-25T01:18:16;4.23;;;2.30;;
17380;SDS011;8808;52.478;13.378;2023-04-25T01:20:48;8.23;;;2.73;;
17380;SDS011;8808;52.478;13.378;2023-04-25T01:23:18;7.07;;;2.50;;
17380;SDS011;8808;52.478;13.378;2023-04-25T01:25:46;6.30;;;2.10;;
17380;SDS011;8808;52.478;13.378;2023-04-25T01:28:14;7.00;;;2.70;;
17380;SDS011;8808;52.478;13.378;2023-04-25T01:30:41;7.70;;;2.57;;
17380;SDS011;8808;52.478;13.378;2023-04-25T01:33:09;6.07;;;2.67;;
17380;SDS011;8808;52.478;13.378;2023-04-25T01:35:36;4.97;;;2.30;;
17380;SDS011;8808;52.478;13.378;2023-04-25T01:38:03;6.00;;;2.23;;
17380;SDS011;8808;52.478;13.378;2023-04-25T01:40:31;5.07;;;2.00;;
17380;SDS011;8808;52.478;13.378;2023-04-25T01:43:00;5.90;;;2.40;;
17380;SDS011;8808;52.478;13.378;2023-04-25T01:45:28;6.67;;;2.47;;
17380;SDS011;8808;52.478;13.378;2023-04-25T01:47:55;7.03;;;2.40;;
17380;SDS011;8808;52.478;13.378;2023-04-25T01:50:24;8.03;;;2.60;;
17380;SDS011;8808;52.478;13.378;2023-04-25T01:52:51;5.30;;;2.80;;
17380;SDS011;8808;52.478;13.378;2023-04-25T01:55:20;11.30;;;2.67;;
17380;SDS011;8808;52.478;13.378;2023-04-25T01:57:48;7.83;;;2.77;;
17380;SDS011;8808;52.478;13.378;2023-04-25T02:00:15;7.83;;;2.77;;
17380;SDS011;8808;52.478;13.378;2023-04-25T02:02:42;11.30;;;2.70;;
17380;SDS011;8808;52.478;13.378;2023-04-25T02:05:09;5.17;;;2.47;;
17380;SDS011;8808;52.478;13.378;2023-04-25T02:07:36;9.37;;;2.80;;
17380;SDS011;8808;52.478;13.378;2023-04-25T02:10:03;7.43;;;2.70;;
17380;SDS011;8808;52.478;13.378;2023-04-25T02:12:31;5.10;;;2.63;;
17380;SDS011;8808;52.478;13.378;2023-04-25T02:14:59;4.10;;;2.50;;
17380;SDS011;8808;52.478;13.378;2023-04-25T02:17:26;6.53;;;3.10;;
17380;SDS011;8808;52.478;13.378;2023-04-25T02:19:53;7.67;;;2.83;;
17380;SDS011;8808;52.478;13.378;2023-04-25T02:22:20;6.47;;;2.70;;
17380;SDS011;8808;52.478;13.378;2023-04-25T02:24:47;8.57;;;3.00;;
17380;SDS011;8808;52.478;13.378;2023-04-25T02:27:14;7.37;;;3.47;;
17380;SDS011;8808;52.478;13.378;2023-04-25T02:29:41;8.57;;;2.80;;
17380;SDS011;8808;52.478;13.378;2023-04-25T02:32:09;7.37;;;3.33;;
17380;SDS011;8808;52.478;13.378;2023-04-25T02:34:36;5.77;;;3.00;;
17380;SDS011;8808;52.478;13.378;2023-04-25T02:37:04;8.07;;;3.43;;
17380;SDS011;8808;52.478;13.378;2023-04-25T02:39:30;12.47;;;3.30;;
17380;SDS011;8808;52.478;13.378;2023-04-25T02:41:58;8.43;;;3.30;;
17380;SDS011;8808;52.478;13.378;2023-04-25T02:44:26;9.60;;;3.20;;
17380;SDS011;8808;52.478;13.378;2023-04-25T02:46:52;5.93;;;3.30;;
17380;SDS011;8808;52.478;13.378;2023-04-25T02:49:21;6.53;;;3.20;;
17380;SDS011;8808;52.478;13.378;2023-04-25T02:51:48;9.60;;;3.13;;
17380;SDS011;8808;52.478;13.378;2023-04-25T02:54:15;7.97;;;3.30;;
17380;SDS011;8808;52.478;13.378;2023-04-25T02:56:42;6.60;;;3.00;;
17380;SDS011;8808;52.478;13.378;2023-04-25T02:59:09;8.07;;;3.10;;
17380;SDS011;8808;52.478;13.378;2023-04-25T03:01:36;9.83;;;3.40;;
17380;SDS011;8808;52.478;13.378;2023-04-25T03:04:03;9.83;;;3.07;;
17380;SDS011;8808;52.478;13.378;2023-04-25T03:06:31;5.90;;;3.13;;
17380;SDS011;8808;52.478;13.378;2023-04-25T03:08:58;6.97;;;3.60;;
17380;SDS011;8808;52.478;13.378;2023-04-25T03:11:25;9.23;;;3.40;;
17380;SDS011;8808;52.478;13.378;2023-04-25T03:13:52;9.63;;;3.60;;
17380;SDS011;8808;52.478;13.378;2023-04-25T03:16:19;8.67;;;3.30;;
17380;SDS011;8808;52.478;13.378;2023-04-25T03:18:47;6.10;;;3.27;;
17380;SDS011;8808;52.478;13.378;2023-04-25T03:21:15;10.20;;;3.87;;
17380;SDS011;8808;52.478;13.378;2023-04-25T03:23:43;8.30;;;3.60;;
17380;SDS011;8808;52.478;13.378;2023-04-25T03:26:10;6.17;;;3.17;;
17380;SDS011;8808;52.478;13.378;2023-04-25T03:28:37;5.83;;;3.43;;
17380;SDS011;8808;52.478;13.378;2023-04-25T03:31:05;8.33;;;3.80;;
17380;SDS011;8808;52.478;13.378;2023-04-25T03:33:32;8.20;;;3.73;;
17380;SDS011;8808;52.478;13.378;2023-04-25T03:35:59;8.90;;;3.23;;
17380;SDS011;8808;52.478;13.378;2023-04-25T03:38:26;9.30;;;3.50;;
17380;SDS011;8808;52.478;13.378;2023-04-25T03:40:54;9.40;;;3.97;;
17380;SDS011;8808;52.478;13.378;2023-04-25T03:43:22;8.80;;;3.87;;
17380;SDS011;8808;52.478;13.378;2023-04-25T03:45:49;14.00;;;3.80;;
17380;SDS011;8808;52.478;13.378;2023-04-25T03:48:16;8.87;;;4.40;;
17380;SDS011;8808;52.478;13.378;2023-04-25T03:50:44;9.60;;;3.77;;
17380;SDS011;8808;52.478;13.378;2023-04-25T03:53:11;8.43;;;4.03;;
17380;SDS011;8808;52.478;13.378;2023-04-25T03:55:38;6.57;;;3.60;;
17380;SDS011;8808;52.478;13.378;2023-04-25T03:58:06;6.53;;;3.73;;
17380;SDS011;8808;52.478;13.378;2023-04-25T04:00:34;9.07;;;3.60;;
17380;SDS011;8808;52.478;13.378;2023-04-25T04:03:01;9.63;;;3.33;;
17380;SDS011;8808;52.478;13.378;2023-04-25T04:05:28;10.33;;;4.13;;
17380;SDS011;8808;52.478;13.378;2023-04-25T04:07:55;7.17;;;3.57;;
17380;SDS011;8808;52.478;13.378;2023-04-25T04:10:22;10.60;;;3.93;;
17380;SDS011;8808;52.478;13.378;2023-04-25T04:12:51;6.93;;;4.00;;
17380;SDS011;8808;52.478;13.378;2023-04-25T04:15:19;9.50;;;4.13;;
17380;SDS011;8808;52.478;13.378;2023-04-25T04:17:47;9.67;;;3.80;;
17380;SDS011;8808;52.478;13.378;2023-04-25T04:20:14;9.40;;;3.63;;
17380;SDS011;8808;52.478;13.378;2023-04-25T04:22:41;7.27;;;3.90;;
17380;SDS011;8808;52.478;13.378;2023-04-25T04:25:08;8.67;;;4.03;;
17380;SDS011;8808;52.478;13.378;2023-04-25T04:27:36;9.47;;;3.97;;
17380;SDS011;8808;52.478;13.378;2023-04-25T04:30:04;9.87;;;4.10;;
17380;SDS011;8808;52.478;13.378;2023-04-25T04:32:34;7.30;;;3.73;;
17380;SDS011;8808;52.478;13.378;2023-04-25T04:35:03;10.83;;;3.70;;
17380;SDS011;8808;52.478;13.378;2023-04-25T04:37:31;13.20;;;3.63;;
17380;SDS011;8808;52.478;13.378;2023-04-25T04:39:58;8.73;;;3.83;;
17380;SDS011;8808;52.478;13.378;2023-04-25T04:42:30;9.17;;;3.73;;
17380;SDS011;8808;52.478;13.378;2023-04-25T04:44:57;8.73;;;3.50;;
17380;SDS011;8808;52.478;13.378;2023-04-25T04:47:26;11.27;;;3.60;;
17380;SDS011;8808;52.478;13.378;2023-04-25T04:49:57;10.20;;;4.23;;
17380;SDS011;8808;52.478;13.378;2023-04-25T04:52:24;9.27;;;3.30;;
17380;SDS011;8808;52.478;13.378;2023-04-25T04:54:51;8.80;;;3.60;;
17380;SDS011;8808;52.478;13.378;2023-04-25T04:57:18;10.67;;;3.57;;
17380;SDS011;8808;52.478;13.378;2023-04-25T04:59:45;7.43;;;3.27;;
17380;SDS011;8808;52.478;13.378;2023-04-25T05:02:12;10.40;;;4.03;;
17380;SDS011;8808;52.478;13.378;2023-04-25T05:04:39;7.30;;;3.83;;
17380;SDS011;8808;52.478;13.378;2023-04-25T05:07:07;8.37;;;3.87;;
17380;SDS011;8808;52.478;13.378;2023-04-25T05:09:34;11.10;;;4.07;;
17380;SDS011;8808;52.478;13.378;2023-04-25T05:12:01;9.67;;;4.17;;
17380;SDS011;8808;52.478;13.378;2023-04-25T05:14:28;7.97;;;3.83;;
17380;SDS011;8808;52.478;13.378;2023-04-25T05:16:58;10.70;;;3.93;;
17380;SDS011;8808;52.478;13.378;2023-04-25T05:19:25;13.90;;;4.20;;
17380;SDS011;8808;52.478;13.378;2023-04-25T05:21:52;12.87;;;4.73;;
17380;SDS011;8808;52.478;13.378;2023-04-25T05:24:20;12.70;;;4.10;;
17380;SDS011;8808;52.478;13.378;2023-04-25T05:26:47;9.27;;;3.90;;
17380;SDS011;8808;52.478;13.378;2023-04-25T05:29:14;12.70;;;4.30;;
17380;SDS011;8808;52.478;13.378;2023-04-25T05:31:41;11.67;;;3.80;;
17380;SDS011;8808;52.478;13.378;2023-04-25T05:34:08;9.17;;;3.53;;
17380;SDS011;8808;52.478;13.378;2023-04-25T05:36:35;9.03;;;3.67;;
17380;SDS011;8808;52.478;13.378;2023-04-25T05:39:02;9.87;;;4.17;;
17380;SDS011;8808;52.478;13.378;2023-04-25T05:41:31;10.27;;;4.07;;
17380;SDS011;8808;52.478;13.378;2023-04-25T05:43:57;8.97;;;4.03;;
17380;SDS011;8808;52.478;13.378;2023-04-25T05:46:24;10.57;;;4.67;;
17380;SDS011;8808;52.478;13.378;2023-04-25T05:48:51;10.50;;;4.37;;
17380;SDS011;8808;52.478;13.378;2023-04-25T05:51:18;9.20;;;3.97;;
17380;SDS011;8808;52.478;13.378;2023-04-25T05:53:45;11.43;;;4.03;;
17380;SDS011;8808;52.478;13.378;2023-04-25T05:56:12;6.23;;;3.90;;
17380;SDS011;8808;52.478;13.378;2023-04-25T05:58:40;9.20;;;4.00;;
17380;SDS011;8808;52.478;13.378;2023-04-25T06:01:07;13.43;;;4.63;;
17380;SDS011;8808;52.478;13.378;2023-04-25T06:03:35;7.90;;;4.30;;
17380;SDS011;8808;52.478;13.378;2023-04-25T06:06:03;10.30;;;4.43;;
17380;SDS011;8808;52.478;13.378;2023-04-25T06:08:30;13.43;;;4.50;;
17380;SDS011;8808;52.478;13.378;2023-04-25T06:10:57;8.37;;;4.07;;
17380;SDS011;8808;52.478;13.378;2023-04-25T06:13:24;9.97;;;4.33;;
17380;SDS011;8808;52.478;13.378;2023-04-25T06:15:53;9.97;;;4.53;;
17380;SDS011;8808;52.478;13.378;2023-04-25T06:18:20;10.70;;;4.30;;
17380;SDS011;8808;52.478;13.378;2023-04-25T06:20:46;10.03;;;3.87;;
17380;SDS011;8808;52.478;13.378;2023-04-25T06:23:13;10.60;;;4.17;;
17380;SDS011;8808;52.478;13.378;2023-04-25T06:25:40;10.63;;;4.97;;
17380;SDS011;8808;52.478;13.378;2023-04-25T06:28:07;10.13;;;4.50;;
17380;SDS011;8808;52.478;13.378;2023-04-25T06:30:34;9.37;;;4.27;;
17380;SDS011;8808;52.478;13.378;2023-04-25T06:33:02;11.50;;;4.77;;
17380;SDS011;8808;52.478;13.378;2023-04-25T06:35:29;14.53;;;4.47;;
17380;SDS011;8808;52.478;13.378;2023-04-25T06:37:56;13.60;;;5.13;;
17380;SDS011;8808;52.478;13.378;2023-04-25T06:40:23;11.83;;;4.80;;
17380;SDS011;8808;52.478;13.378;2023-04-25T06:42:50;10.17;;;4.37;;
17380;SDS011;8808;52.478;13.378;2023-04-25T06:45:17;9.93;;;4.40;;
17380;SDS011;8808;52.478;13.378;2023-04-25T06:47:44;12.30;;;4.10;;
17380;SDS011;8808;52.478;13.378;2023-04-25T06:50:12;8.73;;;4.10;;
17380;SDS011;8808;52.478;13.378;2023-04-25T06:52:39;10.27;;;4.03;;
17380;SDS011;8808;52.478;13.378;2023-04-25T06:55:06;10.17;;;4.40;;
17380;SDS011;8808;52.478;13.378;2023-04-25T06:57:34;7.50;;;3.90;;
17380;SDS011;8808;52.478;13.378;2023-04-25T07:00:01;10.43;;;3.80;;
17380;SDS011;8808;52.478;13.378;2023-04-25T07:02:30;11.70;;;5.00;;
17380;SDS011;8808;52.478;13.378;2023-04-25T07:04:57;13.57;;;4.33;;
17380;SDS011;8808;52.478;13.378;2023-04-25T07:07:26;10.77;;;4.03;;
17380;SDS011;8808;52.478;13.378;2023-04-25T07:09:53;11.37;;;4.20;;
17380;SDS011;8808;52.478;13.378;2023-04-25T07:12:20;11.27;;;4.50;;
17380;SDS011;8808;52.478;13.378;2023-04-25T07:14:47;11.83;;;4.03;;
17380;SDS011;8808;52.478;13.378;2023-04-25T07:17:14;8.07;;;3.73;;
17380;SDS011;8808;52.478;13.378;2023-04-25T07:19:41;8.77;;;3.40;;
17380;SDS011;8808;52.478;13.378;2023-04-25T07:22:08;8.53;;;3.57;;
17380;SDS011;8808;52.478;13.378;2023-04-25T07:24:37;8.97;;;3.70;;
17380;SDS011;8808;52.478;13.378;2023-04-25T07:27:04;8.27;;;3.73;;
17380;SDS011;8808;52.478;13.378;2023-04-25T07:29:31;9.67;;;4.17;;
17380;SDS011;8808;52.478;13.378;2023-04-25T07:32:01;8.27;;;3.90;;
17380;SDS011;8808;52.478;13.378;2023-04-25T07:34:28;11.40;;;4.27;;
17380;SDS011;8808;52.478;13.378;2023-04-25T07:36:56;7.90;;;4.10;;
17380;SDS011;8808;52.478;13.378;2023-04-25T07:39:24;15.40;;;4.23;;
17380;SDS011;8808;52.478;13.378;2023-04-25T07:41:52;13.70;;;4.20;;
17380;SDS011;8808;52.478;13.378;2023-04-25T07:44:19;8.73;;;3.73;;
17380;SDS011;8808;52.478;13.378;2023-04-25T07:46:46;11.47;;;3.77;;
17380;SDS011;8808;52.478;13.378;2023-04-25T07:49:13;11.37;;;3.97;;
17380;SDS011;8808;52.478;13.378;2023-04-25T07:51:41;11.83;;;3.53;;
17380;SDS011;8808;52.478;13.378;2023-04-25T07:54:08;15.27;;;3.83;;
17380;SDS011;8808;52.478;13.378;2023-04-25T07:56:35;15.40;;;4.17;;
17380;SDS011;8808;52.478;13.378;2023-04-25T07:59:03;15.63;;;3.43;;
17380;SDS011;8808;52.478;13.378;2023-04-25T08:01:31;13.67;;;4.17;;
17380;SDS011;8808;52.478;13.378;2023-04-25T08:03:57;13.63;;;3.40;;
17380;SDS011;8808;52.478;13.378;2023-04-25T08:06:24;20.43;;;4.13;;
17380;SDS011;8808;52.478;13.378;2023-04-25T08:08:52;16.70;;;3.60;;
17380;SDS011;8808;52.478;13.378;2023-04-25T08:11:19;16.90;;;4.17;;
17380;SDS011;8808;52.478;13.378;2023-04-25T08:13:46;15.13;;;3.60;;
17380;SDS011;8808;52.478;13.378;2023-04-25T08:16:15;12.37;;;3.37;;
17380;SDS011;8808;52.478;13.378;2023-04-25T08:18:42;18.40;;;3.50;;
17380;SDS011;8808;52.478;13.378;2023-04-25T08:21:09;17.23;;;3.80;;
17380;SDS011;8808;52.478;13.378;2023-04-25T08:23:36;12.60;;;3.33;;
17380;SDS011;8808;52.478;13.378;2023-04-25T08:26:03;15.20;;;3.60;;
17380;SDS011;8808;52.478;13.378;2023-04-25T08:28:30;13.80;;;3.83;;
17380;SDS011;8808;52.478;13.378;2023-04-25T08:30:57;19.13;;;3.30;;
17380;SDS011;8808;52.478;13.378;2023-04-25T08:33:26;16.50;;;3.43;;
17380;SDS011;8808;52.478;13.378;2023-04-25T08:35:52;15.90;;;3.50;;
17380;SDS011;8808;52.478;13.378;2023-04-25T08:38:19;14.07;;;3.17;;
17380;SDS011;8808;52.478;13.378;2023-04-25T08:40:48;14.63;;;3.40;;
17380;SDS011;8808;52.478;13.378;2023-04-25T08:43:17;13.00;;;2.63;;
17380;SDS011;8808;52.478;13.378;2023-04-25T08:45:45;24.27;;;3.13;;
17380;SDS011;8808;52.478;13.378;2023-04-25T08:48:13;10.47;;;2.60;;
17380;SDS011;8808;52.478;13.378;2023-04-25T08:50:44;15.70;;;2.83;;
17380;SDS011;8808;52.478;13.378;2023-04-25T08:53:15;13.67;;;3.10;;
17380;SDS011;8808;52.478;13.378;2023-04-25T08:55:45;16.27;;;2.63;;
17380;SDS011;8808;52.478;13.378;2023-04-25T08:58:12;8.23;;;2.40;;
17380;SDS011;8808;52.478;13.378;2023-04-25T09:00:39;9.40;;;2.03;;
17380;SDS011;8808;52.478;13.378;2023-04-25T09:03:06;15.03;;;3.63;;
17380;SDS011;8808;52.478;13.378;2023-04-25T09:05:33;10.73;;;2.60;;
17380;SDS011;8808;52.478;13.378;2023-04-25T09:08:02;12.70;;;2.23;;
17380;SDS011;8808;52.478;13.378;2023-04-25T09:10:29;11.00;;;2.70;;
17380;SDS011;8808;52.478;13.378;2023-04-25T09:13:03;12.97;;;2.13;;
17380;SDS011;8808;52.478;13.378;2023-04-25T09:15:32;14.00;;;2.33;;
17380;SDS011;8808;52.478;13.378;2023-04-25T09:17:59;12.63;;;2.60;;
17380;SDS011;8808;52.478;13.378;2023-04-25T09:20:26;8.70;;;1.97;;
17380;SDS011;8808;52.478;13.378;2023-04-25T09:23:05;8.57;;;2.27;;
17380;SDS011;8808;52.478;13.378;2023-04-25T09:25:35;11.10;;;2.63;;
17380;SDS011;8808;52.478;13.378;2023-04-25T09:28:04;12.00;;;2.10;;
17380;SDS011;8808;52.478;13.378;2023-04-25T09:30:33;9.80;;;2.17;;
17380;SDS011;8808;52.478;13.378;2023-04-25T09:33:04;8.83;;;2.33;;
17380;SDS011;8808;52.478;13.378;2023-04-25T09:35:35;9.70;;;2.50;;
17380;SDS011;8808;52.478;13.378;2023-04-25T09:38:08;7.23;;;2.30;;
17380;SDS011;8808;52.478;13.378;2023-04-25T09:40:38;15.00;;;2.50;;
17380;SDS011;8808;52.478;13.378;2023-04-25T09:43:08;10.73;;;2.03;;
17380;SDS011;8808;52.478;13.378;2023-04-25T09:45:45;10.53;;;2.47;;
17380;SDS011;8808;52.478;13.378;2023-04-25T09:48:16;14.70;;;2.50;;
17380;SDS011;8808;52.478;13.378;2023-04-25T09:50:44;10.40;;;2.60;;
17380;SDS011;8808;52.478;13.378;2023-04-25T09:53:13;12.13;;;2.27;;
17380;SDS011;8808;52.478;13.378;2023-04-25T09:55:40;10.60;;;2.20;;
17380;SDS011;8808;52.478;13.378;2023-04-25T09:58:09;8.77;;;2.37;;
17380;SDS011;8808;52.478;13.378;2023-04-25T10:00:39;14.63;;;2.40;;
17380;SDS011;8808;52.478;13.378;2023-04-25T10:03:07;12.37;;;2.27;;
17380;SDS011;8808;52.478;13.378;2023-04-25T10:05:34;10.13;;;2.70;;
17380;SDS011;8808;52.478;13.378;2023-04-25T10:08:03;11.67;;;2.33;;
17380;SDS011;8808;52.478;13.378;2023-04-25T10:10:33;8.27;;;2.13;;
17380;SDS011;8808;52.478;13.378;2023-04-25T10:13:03;12.93;;;2.37;;
17380;SDS011;8808;52.478;13.378;2023-04-25T10:15:31;9.70;;;1.97;;
17380;SDS011;8808;52.478;13.378;2023-04-25T10:18:01;7.03;;;1.90;;
17380;SDS011;8808;52.478;13.378;2023-04-25T10:20:29;11.30;;;2.40;;
17380;SDS011;8808;52.478;13.378;2023-04-25T10:22:57;10.83;;;2.40;;
17380;SDS011;8808;52.478;13.378;2023-04-25T10:25:30;7.57;;;1.83;;
17380;SDS011;8808;52.478;13.378;2023-04-25T10:27:59;9.13;;;2.60;;
17380;SDS011;8808;52.478;13.378;2023-04-25T10:30:29;8.17;;;2.03;;
17380;SDS011;8808;52.478;13.378;2023-04-25T10:32:56;4.90;;;2.00;;
17380;SDS011;8808;52.478;13.378;2023-04-25T10:35:25;7.07;;;2.13;;
17380;SDS011;8808;52.478;13.378;2023-04-25T10:37:57;6.00;;;2.23;;
17380;SDS011;8808;52.478;13.378;2023-04-25T10:40:25;7.70;;;2.20;;
17380;SDS011;8808;52.478;13.378;2023-04-25T10:42:52;10.70;;;3.83;;
17380;SDS011;8808;52.478;13.378;2023-04-25T10:45:21;12.40;;;2.03;;
17380;SDS011;8808;52.478;13.378;2023-04-25T10:47:50;9.67;;;2.37;;
17380;SDS011;8808;52.478;13.378;2023-04-25T10:50:17;13.27;;;2.20;;
17380;SDS011;8808;52.478;13.378;2023-04-25T10:52:44;11.50;;;2.33;;
17380;SDS011;8808;52.478;13.378;2023-04-25T10:55:11;6.87;;;2.37;;
17380;SDS011;8808;52.478;13.378;2023-04-25T10:57:39;5.63;;;1.97;;
17380;SDS011;8808;52.478;13.378;2023-04-25T11:00:08;7.50;;;1.77;;
17380;SDS011;8808;52.478;13.378;2023-04-25T11:02:38;10.07;;;2.07;;
17380;SDS011;8808;52.478;13.378;2023-04-25T11:05:08;7.37;;;2.00;;
17380;SDS011;8808;52.478;13.378;2023-04-25T11:07:37;9.87;;;2.40;;
17380;SDS011;8808;52.478;13.378;2023-04-25T11:10:10;9.70;;;2.17;;
17380;SDS011;8808;52.478;13.378;2023-04-25T11:12:37;8.30;;;2.07;;
17380;SDS011;8808;52.478;13.378;2023-04-25T11:15:05;6.37;;;2.07;;
17380;SDS011;8808;52.478;13.378;2023-04-25T11:17:33;6.63;;;1.87;;
17380;SDS011;8808;52.478;13.378;2023-04-25T11:20:01;6.83;;;1.73;;
17380;SDS011;8808;52.478;13.378;2023-04-25T11:22:34;10.23;;;2.10;;
17380;SDS011;8808;52.478;13.378;2023-04-25T11:25:04;9.00;;;2.17;;
17380;SDS011;8808;52.478;13.378;2023-04-25T11:27:32;9.40;;;1.80;;
17380;SDS011;8808;52.478;13.378;2023-04-25T11:30:09;6.03;;;1.90;;
17380;SDS011;8808;52.478;13.378;2023-04-25T11:32:36;8.33;;;1.90;;
17380;SDS011;8808;52.478;13.378;2023-04-25T11:35:07;8.53;;;2.27;;
17380;SDS011;8808;52.478;13.378;2023-04-25T11:37:35;5.13;;;1.60;;
17380;SDS011;8808;52.478;13.378;2023-04-25T11:40:02;5.80;;;1.90;;
17380;SDS011;8808;52.478;13.378;2023-04-25T11:42:31;5.90;;;1.53;;
17380;SDS011;8808;52.478;13.378;2023-04-25T11:44:59;6.53;;;1.60;;
17380;SDS011;8808;52.478;13.378;2023-04-25T11:47:29;6.10;;;1.60;;
17380;SDS011;8808;52.478;13.378;2023-04-25T11:49:57;4.63;;;1.30;;
17380;SDS011;8808;52.478;13.378;2023-04-25T11:52:36;9.87;;;1.60;;
17380;SDS011;8808;52.478;13.378;2023-04-25T11:55:04;3.70;;;1.33;;
17380;SDS011;8808;52.478;13.378;2023-04-25T11:57:32;9.00;;;1.30;;
17380;SDS011;8808;52.478;13.378;2023-04-25T12:00:09;3.67;;;1.37;;
17380;SDS011;8808;52.478;13.378;2023-04-25T12:02:40;6.13;;;1.70;;
17380;SDS011;8808;52.478;13.378;2023-04-25T12:05:07;7.13;;;1.77;;
17380;SDS011;8808;52.478;13.378;2023-04-25T12:07:36;6.10;;;1.60;;
17380;SDS011;8808;52.478;13.378;2023-04-25T12:10:04;7.27;;;1.27;;
17380;SDS011;8808;52.478;13.378;2023-04-25T12:12:32;6.70;;;1.93;;
17380;SDS011;8808;52.478;13.378;2023-04-25T12:15:07;8.43;;;1.90;;
17380;SDS011;8808;52.478;13.378;2023-04-25T12:17:36;10.53;;;1.97;;
17380;SDS011;8808;52.478;13.378;2023-04-25T12:20:05;7.40;;;1.70;;
17380;SDS011;8808;52.478;13.378;2023-04-25T12:22:34;9.13;;;2.20;;
17380;SDS011;8808;52.478;13.378;2023-04-25T12:25:04;19.10;;;11.33;;
17380;SDS011;8808;52.478;13.378;2023-04-25T12:27:32;5.83;;;1.83;;
17380;SDS011;8808;52.478;13.378;2023-04-25T12:30:01;9.10;;;1.83;;
17380;SDS011;8808;52.478;13.378;2023-04-25T12:32:28;4.23;;;1.60;;
17380;SDS011;8808;52.478;13.378;2023-04-25T12:34:56;7.70;;;1.83;;
17380;SDS011;8808;52.478;13.378;2023-04-25T12:37:22;7.07;;;2.00;;
17380;SDS011;8808;52.478;13.378;2023-04-25T12:39:50;4.07;;;1.50;;
17380;SDS011;8808;52.478;13.378;2023-04-25T12:42:18;5.97;;;1.90;;
17380;SDS011;8808;52.478;13.378;2023-04-25T12:44:45;4.93;;;2.07;;
17380;SDS011;8808;52.478;13.378;2023-04-25T12:47:12;4.37;;;1.70;;
17380;SDS011;8808;52.478;13.378;2023-04-25T12:49:40;7.40;;;1.90;;
17380;SDS011;8808;52.478;13.378;2023-04-25T12:52:06;6.53;;;1.87;;
17380;SDS011;8808;52.478;13.378;2023-04-25T12:54:34;7.13;;;2.00;;
17380;SDS011;8808;52.478;13.378;2023-04-25T12:57:00;8.27;;;1.90;;
17380;SDS011;8808;52.478;13.378;2023-04-25T12:59:29;7.13;;;2.13;;
17380;SDS011;8808;52.478;13.378;2023-04-25T13:01:56;10.57;;;1.87;;
17380;SDS011;8808;52.478;13.378;2023-04-25T13:04:23;5.93;;;1.77;;
17380;SDS011;8808;52.478;13.378;2023-04-25T13:06:50;5.30;;;1.60;;
17380;SDS011;8808;52.478;13.378;2023-04-25T13:09:17;8.20;;;1.80;;
17380;SDS011;8808;52.478;13.378;2023-04-25T13:11:45;5.90;;;1.87;;
17380;SDS011;8808;52.478;13.378;2023-04-25T13:14:12;8.50;;;1.97;;
17380;SDS011;8808;52.478;13.378;2023-04-25T13:16:41;4.83;;;1.57;;
17380;SDS011;8808;52.478;13.378;2023-04-25T13:19:08;2.20;;;1.30;;
17380;SDS011;8808;52.478;13.378;2023-04-25T13:21:36;8.03;;;1.63;;
17380;SDS011;8808;52.478;13.378;2023-04-25T13:24:03;4.37;;;1.17;;
17380;SDS011;8808;52.478;13.378;2023-04-25T13:26:30;6.83;;;1.67;;
17380;SDS011;8808;52.478;13.378;2023-04-25T13:28:57;7.53;;;1.50;;
17380;SDS011;8808;52.478;13.378;2023-04-25T13:31:25;3.60;;;1.23;;
17380;SDS011;8808;52.478;13.378;2023-04-25T13:33:53;4.50;;;1.60;;
17380;SDS011;8808;52.478;13.378;2023-04-25T13:36:20;13.50;;;1.60;;
17380;SDS011;8808;52.478;13.378;2023-04-25T13:38:47;13.23;;;1.80;;
17380;SDS011;8808;52.478;13.378;2023-04-25T13:41:14;5.13;;;1.57;;
17380;SDS011;8808;52.478;13.378;2023-04-25T13:43:44;6.63;;;1.40;;
17380;SDS011;8808;52.478;13.378;2023-04-25T13:46:12;7.67;;;1.67;;
17380;SDS011;8808;52.478;13.378;2023-04-25T13:48:40;7.50;;;1.63;;
17380;SDS011;8808;52.478;13.378;2023-04-25T13:51:13;6.40;;;1.70;;
17380;SDS011;8808;52.478;13.378;2023-04-25T13:53:41;4.63;;;1.43;;
17380;SDS011;8808;52.478;13.378;2023-04-25T13:56:08;4.10;;;1.43;;
17380;SDS011;8808;52.478;13.378;2023-04-25T13:58:36;9.23;;;1.67;;
17380;SDS011;8808;52.478;13.378;2023-04-25T14:01:04;5.87;;;1.70;;
17380;SDS011;8808;52.478;13.378;2023-04-25T14:03:30;6.40;;;1.80;;
17380;SDS011;8808;52.478;13.378;2023-04-25T14:05:58;5.77;;;1.80;;
17380;SDS011;8808;52.478;13.378;2023-04-25T14:08:27;8.07;;;1.90;;
17380;SDS011;8808;52.478;13.378;2023-04-25T14:10:53;5.60;;;1.50;;
17380;SDS011;8808;52.478;13.378;2023-04-25T14:13:20;5.90;;;1.40;;
17380;SDS011;8808;52.478;13.378;2023-04-25T14:15:48;5.83;;;1.40;;
17380;SDS011;8808;52.478;13.378;2023-04-25T14:18:16;3.00;;;1.37;;
17380;SDS011;8808;52.478;13.378;2023-04-25T14:20:44;5.17;;;1.73;;
17380;SDS011;8808;52.478;13.378;2023-04-25T14:23:11;6.10;;;1.43;;
17380;SDS011;8808;52.478;13.378;2023-04-25T14:25:39;6.13;;;1.63;;
17380;SDS011;8808;52.478;13.378;2023-04-25T14:28:07;3.17;;;1.40;;
17380;SDS011;8808;52.478;13.378;2023-04-25T14:30:35;5.17;;;1.33;;
17380;SDS011;8808;52.478;13.378;2023-04-25T14:33:02;2.93;;;1.50;;
17380;SDS011;8808;52.478;13.378;2023-04-25T14:35:29;3.63;;;1.50;;
17380;SDS011;8808;52.478;13.378;2023-04-25T14:37:56;3.77;;;1.53;;
17380;SDS011;8808;52.478;13.378;2023-04-25T14:40:23;6.30;;;1.57;;
17380;SDS011;8808;52.478;13.378;2023-04-25T14:42:51;5.80;;;1.27;;
17380;SDS011;8808;52.478;13.378;2023-04-25T14:45:18;3.33;;;1.30;;
17380;SDS011;8808;52.478;13.378;2023-04-25T14:47:45;6.23;;;1.23;;
17380;SDS011;8808;52.478;13.378;2023-04-25T14:50:13;4.20;;;1.40;;